Hurtsboro, Alabama
Current Conditions -  °F | °C
As of 10:55 AM on Tuesday 27 Jan 2015 (Local Time) from KAUO Reporting Station
Scattered Clouds Scattered Clouds  
Wind Chill: 52°   Ceiling: Unl
Heat Index: 52°   Visibility: 10mi
Dew Point: 32°   Wind: 23mph
Humidity: 47%   Direction: 320°NW
Pressure: 30.02"   Gusts: 28mph
Location:  32.24°N, 85.42°W
Report Text: KAUO 271655Z AUTO 32020G24KT 10SM SCT046 11/00 A3002 RMK AO1
Loading
Personal Weather Stations






























Interactive Weather Map New forecast layout! Learn more

10-Day Weather Forecast

Advertisements
Track Severe Weather on mobile